BLH weather

Blythe Airport
Blythe, California, United States

Public forecast

Using degrees Fahrenheit for public forecast. Weather courtesy of forecast.io.

Current aviation weather report (METAR) for Blythe Airport

Retrieved 2019/12/08 06:52 UTC (48 minutes ago):

KBLH 080652Z AUTO 35004KT 8SM CLR 13/13 A3007 RMK AO2 SLP179 T01330128

Aviation forecast (TAF) for Blythe Airport

Retrieved 2019/12/08 06:40 UTC (1 hour ago):

TAF KBLH 080537Z 0806/0906 VRB04KT P6SM SCT060 SCT150 FM081800 22009KT P6SM SCT200